地図

経路データ

SID SEASON NUMBER BASIN SUBBASIN NAME ISO_TIME NATURE LAT LON WMO_WIND WMO_PRES WMO_AGENCY TRACK_TYPE DIST2LAND LANDFALL IFLAG USA_AGENCY USA_ATCF_ID USA_LAT USA_LON USA_RECORD USA_STATUS USA_WIND USA_PRES USA_SSHS USA_R34_NE USA_R34_SE USA_R34_SW USA_R34_NW USA_R50_NE USA_R50_SE USA_R50_SW USA_R50_NW USA_R64_NE USA_R64_SE USA_R64_SW USA_R64_NW USA_POCI USA_ROCI USA_RMW USA_EYE TOKYO_LAT TOKYO_LON TOKYO_GRADE TOKYO_WIND TOKYO_PRES TOKYO_R50_DIR TOKYO_R50_LONG TOKYO_R50_SHORT TOKYO_R30_DIR TOKYO_R30_LONG TOKYO_R30_SHORT TOKYO_LAND CMA_LAT CMA_LON CMA_CAT CMA_WIND CMA_PRES HKO_LAT HKO_LON HKO_CAT HKO_WIND HKO_PRES NEWDELHI_LAT NEWDELHI_LON NEWDELHI_GRADE NEWDELHI_WIND NEWDELHI_PRES NEWDELHI_CI NEWDELHI_DP NEWDELHI_POCI REUNION_LAT REUNION_LON REUNION_TYPE REUNION_WIND REUNION_PRES REUNION_TNUM REUNION_CI REUNION_RMW REUNION_R34_NE REUNION_R34_SE REUNION_R34_SW REUNION_R34_NW REUNION_R50_NE REUNION_R50_SE REUNION_R50_SW REUNION_R50_NW REUNION_R64_NE REUNION_R64_SE REUNION_R64_SW REUNION_R64_NW BOM_LAT BOM_LON BOM_TYPE BOM_WIND BOM_PRES BOM_TNUM BOM_CI BOM_RMW BOM_R34_NE BOM_R34_SE BOM_R34_SW BOM_R34_NW BOM_R50_NE BOM_R50_SE BOM_R50_SW BOM_R50_NW BOM_R64_NE BOM_R64_SE BOM_R64_SW BOM_R64_NW BOM_ROCI BOM_POCI BOM_EYE BOM_POS_METHOD BOM_PRES_METHOD NADI_LAT NADI_LON NADI_CAT NADI_WIND NADI_PRES WELLINGTON_LAT WELLINGTON_LON WELLINGTON_WIND WELLINGTON_PRES DS824_LAT DS824_LON DS824_STAGE DS824_WIND DS824_PRES TD9636_LAT TD9636_LON TD9636_STAGE TD9636_WIND TD9636_PRES TD9635_LAT TD9635_LON TD9635_WIND TD9635_PRES TD9635_ROCI NEUMANN_LAT NEUMANN_LON NEUMANN_CLASS NEUMANN_WIND NEUMANN_PRES MLC_LAT MLC_LON MLC_CLASS MLC_WIND MLC_PRES USA_GUST BOM_GUST BOM_GUST_PER REUNION_GUST REUNION_GUST_PER USA_SEAHGT USA_SEARAD_NE USA_SEARAD_SE USA_SEARAD_SW USA_SEARAD_NW STORM_SPEED STORM_DIR
1978361N02180 1979 135 WP MM ALICE 1978-12-27 05:00:00 NR 1.50000 179.800 main 1868 1868 __________O___ -1 1.50000 179.800 1 4 270
1978361N02180 1979 135 WP MM ALICE 1978-12-27 06:00:00 NR 1.50001 179.738 main 1873 1873 __________P___ -1 1.50001 179.738 1 4 270
1978361N02180 1979 135 WP MM ALICE 1978-12-27 09:00:00 NR 1.50001 179.550 main 1883 1883 __________P___ -1 1.50001 179.550 1 4 270
1978361N02180 1979 135 WP MM ALICE 1978-12-27 12:00:00 NR 1.50001 179.358 main 1888 1888 __________P___ -1 1.50001 179.358 1 4 270
1978361N02180 1979 135 WP MM ALICE 1978-12-27 15:00:00 NR 1.50001 179.160 main 1898 1898 __________P___ -1 1.50001 179.160 1 4 270
1978361N02180 1979 135 WP MM ALICE 1978-12-27 18:00:00 NR 1.50000 178.953 main 1908 1908 __________P___ -1 1.50000 178.953 1 4 270
1978361N02180 1979 135 WP MM ALICE 1978-12-27 21:00:00 NR 1.50000 178.734 main 1924 1924 __________P___ -1 1.50000 178.734 1 5 270
1978361N02180 1979 135 WP MM ALICE 1978-12-28 00:00:00 NR 1.50000 178.500 main 1935 1935 __________O___ -1 1.50000 178.500 1 5 270
1978361N02180 1979 135 WP MM ALICE 1978-12-28 03:00:00 NR 1.50000 178.251 main 1946 1946 __________P___ -1 1.50000 178.251 1 5 270
1978361N02180 1979 135 WP MM ALICE 1978-12-28 06:00:00 NR 1.50001 177.994 main 1963 1963 __________P___ -1 1.50001 177.994 1 5 270
1978361N02180 1979 135 WP MM ALICE 1978-12-28 09:00:00 NR 1.50000 177.741 main 1980 1980 __________P___ -1 1.50000 177.741 1 5 270
1978361N02180 1979 135 WP MM ALICE 1978-12-28 12:00:00 NR 1.50000 177.500 main 1992 1992 __________O___ -1 1.50000 177.500 1 4 270
1978361N02180 1979 135 WP MM ALICE 1978-12-28 15:00:00 NR 1.49998 177.298 main 2001 2001 __________P___ -1 1.49998 177.298 1 4 270
1978361N02180 1979 135 WP MM ALICE 1978-12-28 18:00:00 NR 1.49997 177.107 main 2004 2004 __________P___ -1 1.49997 177.107 1 4 270
1978361N02180 1979 135 WP MM ALICE 1978-12-28 21:00:00 NR 1.49998 176.913 main 2008 2008 __________P___ -1 1.49998 176.913 1 4 270
1978361N02180 1979 135 WP MM ALICE 1978-12-29 00:00:00 NR 1.50000 176.700 main 2011 2011 __________O___ -1 1.50000 176.700 1 5 270
1978361N02180 1979 135 WP MM ALICE 1978-12-29 03:00:00 NR 1.50002 176.426 main 2017 2017 __________P___ -1 1.50002 176.426 1 6 270
1978361N02180 1979 135 WP MM ALICE 1978-12-29 06:00:00 NR 1.50003 176.135 main 2021 2003 __________P___ -1 1.50003 176.135 1 6 270
1978361N02180 1979 135 WP MM ALICE 1978-12-29 09:00:00 NR 1.50002 175.851 main 2003 1976 __________P___ -1 1.50002 175.851 1 5 270
1978361N02180 1979 135 WP MM ALICE 1978-12-29 12:00:00 NR 1.50000 175.600 main 1976 1957 __________O___ -1 1.50000 175.600 1 4 270
1978361N02180 1979 135 WP MM ALICE 1978-12-29 15:00:00 NR 1.49997 175.430 main 1957 1948 __________P___ -1 1.49997 175.430 1 3 270
1978361N02180 1979 135 WP MM ALICE 1978-12-29 18:00:00 NR 1.49996 175.293 main 1948 1939 __________P___ -1 1.49996 175.293 1 3 270
1978361N02180 1979 135 WP MM ALICE 1978-12-29 21:00:00 NR 1.49997 175.158 main 1939 1921 __________P___ -1 1.49997 175.158 1 3 270
1978361N02180 1979 135 WP MM ALICE 1978-12-30 00:00:00 NR 1.50000 175.000 main 1921 1903 __________O___ -1 1.50000 175.000 1 4 268
1978361N02180 1979 135 WP MM ALICE 1978-12-30 03:00:00 NR 1.48781 174.783 main 1903 1886 __________P___ -1 1.48781 174.783 1 5 267
1978361N02180 1979 135 WP MM ALICE 1978-12-30 06:00:00 NR 1.47750 174.537 main 1877 1859 __________P___ -1 1.47750 174.537 1 5 269
1978361N02180 1979 135 WP MM ALICE 1978-12-30 09:00:00 NR 1.47844 174.273 main 1859 1833 __________P___ -1 1.47844 174.273 1 5 272
1978361N02180 1979 135 WP MM ALICE 1978-12-30 12:00:00 NR 1.50000 174.000 main 1833 1815 __________O___ -1 1.50000 174.000 1 5 278
1978361N02180 1979 135 WP MM ALICE 1978-12-30 15:00:00 NR 1.55342 173.744 main 1814 1797 __________P___ -1 1.55342 173.744 1 5 284
1978361N02180 1979 135 WP MM ALICE 1978-12-30 18:00:00 NR 1.62747 173.480 main 1797 1778 __________P___ -1 1.62747 173.480 1 6 286
1978361N02180 1979 135 WP MM ALICE 1978-12-30 21:00:00 NR 1.71279 173.201 main 1778 1761 __________P___ -1 1.71279 173.201 1 6 287
1978361N02180 1979 135 WP MM ALICE 1978-12-31 00:00:00 NR 1.80000 172.900 main 1761 1736 __________O___ -1 1.80000 172.900 1 7 284
1978361N02180 1979 135 WP MM ALICE 1978-12-31 03:00:00 NR 1.87097 172.547 main 1735 1735 __________P___ -1 1.87097 172.547 1 4 293
1978361N02180 1979 135 WP MM ALICE 1978-12-31 06:00:00 TS 1.95404 172.542 main 1743 1727 __O_______P___ -1 2.00000 174.000 1 29 1002 1.94255 172.178 1 3 303
1978361N02180 1979 135 WP MM ALICE 1978-12-31 09:00:00 TS 2.02942 172.303 main 1727 1711 __P_______P___ -1 2.05258 173.270 1 29 1001 2.01785 171.819 1 6 283
1978361N02180 1979 135 WP MM ALICE 1978-12-31 12:00:00 TS 2.08750 171.975 1004 tokyo main 1711 1695 _OO_______O___ -1 2.00000 172.000 2 1004 0 0 0 2.10000 172.600 1 29 1000 2.10000 171.500 1 6 283
1978361N02180 1979 135 WP MM ALICE 1978-12-31 15:00:00 TS 2.16935 171.695 main 1695 1679 _PP_______P___ -1 2.23250 171.855 2 1003 0 0 2.15498 172.040 1 29 1000 2.15214 171.269 1 6 291
1978361N02180 1979 135 WP MM ALICE 1978-12-31 18:00:00 TS 2.29725 171.437 1002 tokyo main 1679 1679 _OO_______P___ -1 2.40000 171.700 2 1002 0 0 0 2.30000 171.600 1 29 1000 2.21744 171.077 1 5 304
1978361N02180 1979 135 WP MM ALICE 1978-12-31 21:00:00 TS 2.47132 171.237 main 1680 1672 _PP_______P___ -1 2.47749 171.522 2 1001 0 0 2.61245 171.292 1 33 999 2.32402 170.897 1 6 308
1978361N02180 1979 135 WP MM ALICE 1979-01-01 00:00:00 TS 2.67143 170.957 1000 tokyo main 1681 1668 OOO______OO___ jtwc_wp WP011979 2.50000 170.700 20 -1 2.60000 171.300 2 1000 0 0 0 3.00000 171.000 2 38 998 2.50000 170.700 TC 20 2.50000 170.700 1 20 8 307
1978361N02180 1979 135 WP MM ALICE 1979-01-01 03:00:00 TS 2.95557 170.599 main 1677 1670 PPP______PP___ WP011979 2.77752 170.393 22 -1 2.91250 171.023 2 1000 0 0 3.35004 170.543 2 38 996 2.77752 170.393 TC 22 2.78221 170.438 1 22 9 311
1978361N02180 1979 135 WP MM ALICE 1979-01-01 06:00:00 TS 3.28501 170.246 1000 tokyo main 1675 1675 OOO______OP___ jtwc_wp WP011979 3.10000 170.100 25 -1 3.30000 170.700 2 1000 0 0 0 3.70000 170.100 2 38 995 3.10000 170.100 TC 25 3.13255 170.158 1 25 10 316
1978361N02180 1979 135 WP MM ALICE 1979-01-01 09:00:00 TS 3.64331 169.943 main 1681 1681 PPP______PP___ WP011979 3.49249 169.835 27 -1 3.65750 170.350 2 1000 0 0 4.05746 169.820 2 38 995 3.49249 169.835 TC 27 3.51660 169.873 1 27 9 323
1978361N02180 1979 135 WP MM ALICE 1979-01-01 12:00:00 TS 4.01905 169.690 1000 tokyo main 1704 1704 OOOO_____OO___ jtwc_wp WP011979 3.90000 169.600 30 -1 4.00000 170.000 2 1000 0 0 0 4.40000 169.600 2 38 995 4.00000 169.900 TD 25 1000 3.90000 169.600 TC 30 3.90000 169.600 1 30 9 326
1978361N02180 1979 135 WP MM ALICE 1979-01-01 15:00:00 TS 4.35759 169.455 main 1729 1722 PPPP_____PP___ WP011979 4.26498 169.400 32 -1 4.30747 169.700 2 999 0 0 4.73000 169.343 2 43 992 4.31003 169.598 TD 27 997 4.26498 169.400 TC 32 4.24432 169.361 1 32 8 324
1978361N02180 1979 135 WP MM ALICE 1979-01-01 18:00:00 TS 4.66607 169.219 998 tokyo main 1739 1739 OOOO_____OP___ jtwc_wp WP011979 4.60000 169.200 35 0 4.60000 169.400 2 998 0 0 0 5.00000 169.100 3 48 990 4.60000 169.300 TD 30 995 4.60000 169.200 TC 35 4.57993 169.135 1 35 8 320
1978361N02180 1979 135 WP MM ALICE 1979-01-01 21:00:00 TS 4.94467 168.966 main 1746 1746 PPPP_____PP___ WP011979 4.91500 168.957 37 0 4.90751 169.043 2 994 0 0 5.17246 168.915 3 48 988 4.85747 169.007 TD 32 992 4.91500 168.957 TC 37 4.90057 168.917 1 37 7 316
1978361N02180 1979 135 WP MM ALICE 1979-01-02 00:00:00 TS 5.20000 168.700 50 990 tokyo main 1758 1757 OOOO_____OO___ jtwc_wp WP011979 5.20000 168.700 40 0 5.20000 168.700 4 50 990 0 9 150 150 0 5.30000 168.700 3 48 986 5.10000 168.700 TS 35 990 5.20000 168.700 TC 40 5.20000 168.700 2 40 7 312
1978361N02180 1979 135 WP MM ALICE 1979-01-02 03:00:00 TS 5.43944 168.406 main 1761 1761 PPPP_____PP___ WP011979 5.45750 168.442 42 0 5.45747 168.435 4 50 987 0 9 150 150 5.43506 168.343 3 48 986 5.35751 168.343 TS 40 987 5.45750 168.442 TC 42 5.47160 168.430 2 42 7 310
1978361N02180 1979 135 WP MM ALICE 1979-01-02 06:00:00 TS 5.67043 168.128 50 985 tokyo main 1775 1770 OOOO_____OP___ jtwc_wp WP011979 5.70000 168.200 45 0 5.70000 168.200 4 50 985 0 9 150 150 0 5.60000 168.000 3 48 986 5.60000 168.000 TS 45 985 5.70000 168.200 TC 45 5.72256 168.168 2 45 7 312
1978361N02180 1979 135 WP MM ALICE 1979-01-02 09:00:00 TS 5.90662 167.879 main 1785 1780 PPPP_____PP___ WP011979 5.95000 167.970 47 0 5.94252 167.913 4 50 985 0 9 150 150 5.83497 167.775 3 48 986 5.80000 167.698 TS 45 985 5.95000 167.970 TC 47 5.96223 167.946 2 47 6 320
1978361N02180 1979 135 WP MM ALICE 1979-01-02 12:00:00 TS 6.15000 167.717 50 985 tokyo main 1806 1796 OOOO_____OO___ jtwc_wp WP011979 6.20000 167.800 50 0 6.20000 167.700 4 50 985 0 9 150 150 0 6.10000 167.700 3 48 986 6.00000 167.500 TS 45 985 6.20000 167.800 TC 50 6.20000 167.800 2 50 5 338
1978361N02180 1979 135 WP MM ALICE 1979-01-02 15:00:00 TS 6.40128 167.675 main 1826 1826 PPPP_____PP___ WP011979 6.44998 167.698 52 0 6.49247 167.640 4 52 982 0 9 160 160 6.33501 167.805 3 48 986 6.24247 167.440 TS 47 982 6.44998 167.698 TC 52 6.43776 167.771 2 51 5 0
1978361N02180 1979 135 WP MM ALICE 1979-01-02 18:00:00 TS 6.66291 167.736 55 980 tokyo main 1857 1857 OOOO_____OP___ jtwc_wp WP011979 6.70000 167.700 55 0 6.80000 167.700 4 55 980 9 50 50 9 170 170 0 6.60000 168.000 3 48 986 6.50000 167.500 STS 50 980 6.70000 167.700 TC 55 6.67746 167.817 2 52 6 19
1978361N02180 1979 135 WP MM ALICE 1979-01-02 21:00:00 TS 6.92682 167.861 main 1886 1886 PPPP_____PP___ WP011979 6.92751 167.820 55 0 7.09999 167.813 4 55 980 9 50 50 9 170 170 6.93501 168.195 3 48 985 6.74249 167.613 STS 50 980 6.92751 167.820 TC 55 6.92842 167.905 2 53 6 27
1978361N02180 1979 135 WP MM ALICE 1979-01-03 00:00:00 TS 7.21667 168.017 55 980 tokyo main 1921 1921 OOOO_____OO___ jtwc_wp WP011979 7.20000 168.000 55 0 7.40000 168.000 4 55 980 9 50 50 9 170 170 0 7.30000 168.300 3 48 984 7.00000 167.800 STS 50 980 7.20000 168.000 TC 55 7.20000 168.000 2 55 7 25
1978361N02180 1979 135 WP MM ALICE 1979-01-03 03:00:00 TS 7.56174 168.155 main 1971 1971 PPPP_____PP___ WP011979 7.60001 168.180 52 0 7.68505 168.272 4 55 980 9 50 50 9 170 170 7.66503 168.158 3 48 984 7.29255 168.072 STS 47 982 7.60001 168.180 TC 52 7.52781 168.066 2 53 7 19
1978361N02180 1979 135 WP MM ALICE 1979-01-03 06:00:00 TS 7.91208 168.255 55 980 tokyo main 2007 2007 OOOO_____OP___ jtwc_wp WP011979 8.00000 168.300 50 0 8.00000 168.500 4 55 980 9 50 50 9 170 170 0 8.00000 168.000 3 48 984 7.60000 168.300 TS 45 985 8.00000 168.300 TC 50 7.87250 168.130 2 52 7 11
1978361N02180 1979 135 WP MM ALICE 1979-01-03 09:00:00 TS 8.22681 168.286 main 2037 2037 PPPP_____PP___ WP011979 8.27999 168.280 50 0 8.42997 168.553 4 55 980 9 50 50 9 170 170 8.26500 168.070 3 48 984 7.89997 168.353 TS 45 985 8.27999 168.280 TC 50 8.20594 168.179 2 51 6 2
1978361N02180 1979 135 WP MM ALICE 1979-01-03 12:00:00 TS 8.50000 168.267 55 980 tokyo main 2068 2068 OOOO_____OO___ jtwc_wp WP011979 8.50000 168.200 50 0 8.80000 168.500 4 55 980 9 50 50 9 170 170 0 8.50000 168.200 3 48 984 8.20000 168.300 TS 45 985 8.50000 168.200 TC 50 8.50000 168.200 2 50 5 356
1978361N02180 1979 135 WP MM ALICE 1979-01-03 15:00:00 TS 8.73404 168.242 main 2084 2084 PPPP_____PP___ WP011979 8.71500 168.150 50 0 8.94499 168.423 4 55 980 9 50 50 9 170 170 8.77248 168.295 3 48 984 8.52250 168.215 TS 45 985 8.71500 168.150 TC 50 8.73427 168.219 2 51 4 350
1978361N02180 1979 135 WP MM ALICE 1979-01-03 18:00:00 TS 8.92080 168.184 55 980 tokyo main 2104 2104 OOOO_____OP___ jtwc_wp WP011979 8.90000 168.100 50 0 9.00000 168.300 4 55 980 9 50 50 9 170 170 0 9.00000 168.300 3 48 984 8.80000 168.100 TS 45 985 8.90000 168.100 TC 50 8.92481 168.205 2 52 4 338
1978361N02180 1979 135 WP MM ALICE 1979-01-03 21:00:00 TS 9.06839 168.103 main 2121 2117 PPPP_____PP___ WP011979 9.06499 168.057 52 0 9.09995 168.187 4 55 980 9 50 50 9 160 160 9.12999 168.153 3 48 983 8.97247 168.022 TS 45 985 9.06499 168.057 TC 52 9.07796 168.138 2 53 3 321
1978361N02180 1979 135 WP MM ALICE 1979-01-04 00:00:00 TS 9.18333 167.967 55 980 tokyo main 2127 2123 OOOO_____OO___ jtwc_wp WP011979 9.20000 168.000 55 0 9.20000 168.000 4 55 980 9 50 50 9 150 150 0 9.20000 167.900 3 48 982 9.10000 167.900 TS 45 985 9.20000 168.000 TC 55 9.20000 168.000 2 55 4 306
1978361N02180 1979 135 WP MM ALICE 1979-01-04 03:00:00 TS 9.29720 167.785 main 2129 2125 PPPP_____PP___ WP011979 9.31488 167.967 55 0 9.30754 167.680 4 52 980 9 9 150 150 9.26501 167.615 3 53 982 9.26498 167.688 TS 45 985 9.31488 167.967 TC 55 9.31591 167.792 2 55 5 294
1978361N02180 1979 135 WP MM ALICE 1979-01-04 06:00:00 TS 9.38374 167.519 50 980 tokyo main 2128 2116 OOOO_____OP___ jtwc_wp WP011979 9.40000 167.800 55 0 9.40000 167.300 4 50 980 0 9 150 150 0 9.30000 167.300 3 58 982 9.40000 167.400 TS 45 985 9.40000 167.800 TC 55 9.40244 167.513 2 55 6 283
1978361N02180 1979 135 WP MM ALICE 1979-01-04 09:00:00 TS 9.43591 167.151 main 2116 2109 PPPP_____PP___ WP011979 9.46517 167.345 55 0 9.45744 166.957 4 50 980 0 9 150 150 9.29243 167.015 3 58 981 9.47250 167.065 TS 45 985 9.46517 167.345 TC 55 9.46273 167.177 2 55 8 276
1978361N02180 1979 135 WP MM ALICE 1979-01-04 12:00:00 TS 9.46667 166.733 50 980 tokyo main 2109 2097 OOOO_____OO___ jtwc_wp WP011979 9.50000 166.800 55 0 9.50000 166.600 4 50 980 0 9 150 150 0 9.30000 166.700 3 58 980 9.50000 166.700 TS 45 985 9.50000 166.800 TC 55 9.50000 166.800 2 55 8 274
1978361N02180 1979 135 WP MM ALICE 1979-01-04 15:00:00 TS 9.49308 166.345 main 2093 2079 PPPP_____PP___ WP011979 9.50737 166.392 55 0 9.54998 166.208 4 50 980 0 9 150 150 9.39250 166.315 3 58 980 9.49994 166.357 TS 47 982 9.50737 166.392 TC 55 9.50135 166.403 2 55 8 274
1978361N02180 1979 135 WP MM ALICE 1979-01-04 18:00:00 TS 9.51419 165.945 50 980 tokyo main 2073 2047 OOOO_____OP___ jtwc_wp WP011979 9.50000 166.000 55 0 9.60000 165.800 4 50 980 0 9 150 150 0 9.50000 165.900 3 58 980 9.50000 166.000 STS 50 980 9.50000 166.000 TC 55 9.48514 165.972 2 55 8 273
1978361N02180 1979 135 WP MM ALICE 1979-01-04 21:00:00 TS 9.53022 165.519 main 2047 2032 PPPP_____PP___ WP011979 9.48502 165.542 55 0 9.64248 165.392 4 50 980 0 9 150 150 9.55743 165.507 3 58 977 9.53500 165.600 STS 50 980 9.48502 165.542 TC 55 9.47634 165.531 2 55 8 274
1978361N02180 1979 135 WP MM ALICE 1979-01-05 00:00:00 TS 9.56667 165.100 50 980 tokyo main 2032 2007 OOOO_____OO___ jtwc_wp WP011979 9.50000 165.100 55 0 9.70000 165.000 4 50 980 0 9 150 150 0 9.60000 165.100 3 58 975 9.60000 165.200 STS 50 980 9.50000 165.100 TC 55 9.50000 165.100 2 55 8 278
1978361N02180 1979 135 WP MM ALICE 1979-01-05 03:00:00 TS 9.63858 164.728 main 2007 1994 PPPP_____PP___ WP011979 9.57739 164.742 57 0 9.78492 164.650 4 52 977 0 9 145 145 9.65000 164.650 3 58 975 9.67739 164.857 STS 52 977 9.57739 164.742 TC 57 9.56436 164.727 2 57 8 284
1978361N02180 1979 135 WP MM ALICE 1979-01-05 06:00:00 TS 9.74451 164.361 55 975 tokyo main 1994 1974 OOOO_____OP___ jtwc_wp WP011979 9.70000 164.400 60 0 9.90000 164.300 4 55 975 9 50 50 9 140 140 0 9.70000 164.200 3 58 975 9.80000 164.500 STS 55 975 9.70000 164.400 TC 60 9.66703 164.365 2 60 8 287
1978361N02180 1979 135 WP MM ALICE 1979-01-05 09:00:00 TS 9.86141 163.967 main 1983 1962 PPPP_____PP___ WP011979 9.81995 164.015 62 0 10.0199 163.922 4 55 972 9 50 50 9 140 140 9.71243 163.792 3 58 972 9.98500 164.065 STS 55 975 9.81995 164.015 TC 62 9.81121 163.995 2 62 9 290
1978361N02180 1979 135 WP MM ALICE 1979-01-05 12:00:00 TS 10.0333 163.550 55 970 tokyo main 1964 1955 OOOO_____OO___ jtwc_wp WP011979 10.0000 163.600 65 1 10.2000 163.500 4 55 970 9 50 50 9 140 140 0 9.80000 163.400 3 58 969 10.2000 163.600 STS 55 975 10.0000 163.600 TC 65 10.0000 163.600 4 65 9 297
1978361N02180 1979 135 WP MM ALICE 1979-01-05 15:00:00 TS 10.2903 163.113 main 1958 1948 PPPP_____PP___ WP011979 10.2849 163.165 65 1 10.4925 163.008 4 57 970 9 45 45 9 130 130 10.0474 163.015 3 58 968 10.3924 163.157 STS 60 972 10.2849 163.165 TC 65 10.2398 163.170 4 66 10 302
1978361N02180 1979 135 WP MM ALICE 1979-01-05 18:00:00 TS 10.5866 162.652 60 970 tokyo main 1957 1942 OOOO_____OP___ jtwc_wp WP011979 10.6000 162.700 65 1 10.8000 162.500 4 60 970 9 40 40 9 120 120 0 10.4000 162.600 3 58 967 10.6000 162.700 T 65 970 10.6000 162.700 TC 65 10.5197 162.710 4 67 11 302
1978361N02180 1979 135 WP MM ALICE 1979-01-05 21:00:00 TS 10.8620 162.173 main 1951 1935 PPPP_____PP___ WP011979 10.8574 162.215 67 1 11.0148 162.057 4 62 967 9 40 40 9 120 120 10.7849 162.130 3 58 965 10.8425 162.200 T 65 970 10.8574 162.215 TC 67 10.8147 162.220 4 68 11 299
1978361N02180 1979 135 WP MM ALICE 1979-01-06 00:00:00 TS 11.1333 161.667 65 965 tokyo main 1938 1932 OOOO_____OO___ jtwc_wp WP011979 11.1000 161.700 70 1 11.2000 161.600 5 65 965 9 40 40 9 120 120 0 11.2000 161.600 3 58 964 11.1000 161.700 T 65 970 11.1000 161.700 TC 70 11.1000 161.700 4 70 12 298
1978361N02180 1979 135 WP MM ALICE 1979-01-06 03:00:00 TS 11.4148 161.123 main 1930 1921 PPPP_____PP___ WP011979 11.3574 161.165 72 1 11.4000 161.057 5 67 965 9 45 45 9 135 110 11.6526 160.993 3 63 963 11.3574 161.235 T 67 967 11.3574 161.165 TC 72 11.3640 161.126 4 72 12 296
1978361N02180 1979 135 WP MM ALICE 1979-01-06 06:00:00 TS 11.6684 160.571 70 965 tokyo main 1930 1911 OOOO_____OP___ jtwc_wp WP011979 11.6000 160.600 75 1 11.6000 160.500 5 70 965 9 50 50 1 150 100 0 12.0000 160.400 4 68 962 11.6000 160.800 T 70 965 11.6000 160.600 TC 75 11.6104 160.528 4 75 12 293
1978361N02180 1979 135 WP MM ALICE 1979-01-06 09:00:00 TS 11.8685 160.041 main 1916 1904 PPPP_____PP___ WP011979 11.8226 159.978 77 1 11.8149 159.993 5 70 962 9 50 50 1 155 100 12.1023 159.935 4 68 961 11.8223 160.422 T 70 962 11.8226 159.978 TC 77 11.8266 159.941 4 77 11 289
1978361N02180 1979 135 WP MM ALICE 1979-01-06 12:00:00 TS 12.0167 159.533 70 960 tokyo main 1899 1889 OOOO_____OO___ jtwc_wp WP011979 12.0000 159.400 80 1 12.0000 159.500 5 70 960 9 50 50 1 160 100 0 12.1000 159.500 4 68 961 12.0000 160.000 T 70 960 12.0000 159.400 TC 80 12.0000 159.400 4 80 10 285
1978361N02180 1979 135 WP MM ALICE 1979-01-06 15:00:00 TS 12.1282 159.057 main 1889 1874 PPPP_____PP___ WP011979 12.1223 158.970 82 1 12.1224 158.992 5 70 957 9 50 50 1 160 100 12.1500 159.000 4 68 959 12.1225 159.430 T 70 960 12.1223 158.970 TC 82 12.1294 158.978 4 82 9 282
1978361N02180 1979 135 WP MM ALICE 1979-01-06 18:00:00 TS 12.2027 158.600 70 955 tokyo main 1874 1859 OOOO_____OP___ jtwc_wp WP011979 12.2000 158.600 85 2 12.2000 158.500 5 70 955 9 50 50 1 160 100 0 12.2000 158.500 4 68 958 12.2000 158.800 T 70 960 12.2000 158.600 TC 85 12.2162 158.600 4 85 9 279
1978361N02180 1979 135 WP MM ALICE 1979-01-06 21:00:00 TS 12.2607 158.167 main 1864 1841 PPPP_____PP___ WP011979 12.2648 158.230 87 2 12.2573 158.065 5 72 952 9 52 52 1 160 100 12.2498 158.057 4 72 954 12.2574 158.200 T 72 955 12.2648 158.230 TC 87 12.2700 158.222 4 87 9 276
1978361N02180 1979 135 WP MM ALICE 1979-01-07 00:00:00 TS 12.3000 157.700 75 950 tokyo main 1841 1819 OOOO_____OO___ jtwc_wp WP011979 12.3000 157.800 90 2 12.3000 157.600 5 75 950 9 55 55 1 160 100 0 12.3000 157.600 4 77 950 12.3000 157.600 T 75 950 12.3000 157.800 TC 90 12.3000 157.800 4 90 10 274
1978361N02180 1979 135 WP MM ALICE 1979-01-07 03:00:00 TS 12.3324 157.138 main 1815 1798 PPPP_____PP___ WP011979 12.3076 157.222 92 2 12.3500 157.030 5 77 947 9 57 57 1 160 100 12.3499 157.072 4 77 949 12.3499 157.000 T 77 947 12.3076 157.222 TC 92 12.3297 157.283 4 92 11 273
1978361N02180 1979 135 WP MM ALICE 1979-01-07 06:00:00 TS 12.3562 156.536 80 945 tokyo main 1801 1783 OOOO_____OP___ jtwc_wp WP011979 12.3000 156.600 95 2 12.4000 156.400 5 80 945 9 60 60 8 160 100 0 12.4000 156.500 4 77 948 12.4000 156.400 T 80 945 12.3000 156.600 TC 95 12.3374 156.717 4 95 12 273
1978361N02180 1979 135 WP MM ALICE 1979-01-07 09:00:00 TS 12.3931 155.943 main 1779 1763 PPPP_____PP___ WP011979 12.3073 156.043 97 3 12.4725 155.743 5 82 942 9 60 60 8 160 100 12.4799 155.915 4 82 944 12.4649 155.800 T 82 942 12.3073 156.043 TC 97 12.3264 156.118 4 97 12 272
1978361N02180 1979 135 WP MM ALICE 1979-01-07 12:00:00 TS 12.4000 155.350 85 940 tokyo main 1763 1735 OOOO_____OO___ jtwc_wp WP011979 12.3000 155.500 100 3 12.5000 155.100 5 85 940 9 60 60 8 160 100 0 12.5000 155.300 5 87 940 12.5000 155.200 ST 85 940 12.3000 155.500 TC 100 12.3000 155.500 4 100 11 267
1978361N02180 1979 135 WP MM ALICE 1979-01-07 15:00:00 TS 12.3365 154.771 main 1735 1719 PPPP_____PP___ WP011979 12.2572 154.972 102 3 12.4147 154.542 5 87 935 9 60 60 8 160 100 12.3650 154.642 5 92 934 12.4649 154.592 ST 87 935 12.2572 154.972 TC 102 12.2598 154.901 4 102 12 263
1978361N02180 1979 135 WP MM ALICE 1979-01-07 18:00:00 TS 12.2511 154.181 90 930 tokyo main 1719 1695 OOOO_____OP___ jtwc_wp WP011979 12.2000 154.400 105 3 12.3000 154.000 5 90 930 9 60 60 8 160 100 0 12.2000 154.000 5 97 928 12.4000 154.000 ST 90 930 12.2000 154.400 TC 105 12.2068 154.287 4 105 12 263
1978361N02180 1979 135 WP MM ALICE 1979-01-07 21:00:00 TS 12.1999 153.572 main 1695 1685 PPPP_____PP___ WP011979 12.1499 153.730 107 3 12.2500 153.400 5 90 930 9 60 60 8 160 100 12.1347 153.458 5 97 929 12.3647 153.458 ST 95 930 12.1499 153.730 TC 107 12.1504 153.654 4 107 12 265
1978361N02180 1979 135 WP MM ALICE 1979-01-08 00:00:00 TS 12.1500 152.933 90 930 tokyo main 1684 1665 OOOO_____OO___ jtwc_wp WP011979 12.1000 153.000 110 3 12.2000 152.800 5 90 930 9 60 60 8 160 100 0 12.1000 152.900 5 97 930 12.3000 152.900 SuperT 100 930 12.1000 153.000 TC 110 12.1000 153.000 4 110 13 264
1978361N02180 1979 135 WP MM ALICE 1979-01-08 03:00:00 TS 12.0742 152.253 main 1665 1646 PPPP_____PP___ WP011979 12.0425 152.242 105 3 12.0998 152.257 5 92 935 9 62 62 8 160 100 12.0426 152.207 5 97 932 12.1499 152.265 SuperT 105 935 12.0425 152.242 TC 105 12.0679 152.301 4 105 13 264
1978361N02180 1979 135 WP MM ALICE 1979-01-08 06:00:00 TS 12.0071 151.564 95 940 tokyo main 1646 1626 OOOO_____OP___ jtwc_wp WP011979 12.0000 151.500 100 3 12.0000 151.700 5 95 940 9 65 65 8 160 100 0 12.0000 151.500 5 97 935 12.0000 151.600 SuperT 110 940 12.0000 151.500 TC 100 12.0427 151.585 4 100 13 266
1978361N02180 1979 135 WP MM ALICE 1979-01-08 09:00:00 TS 11.9842 150.908 main 1626 1612 PPPP_____PP___ WP011979 11.9998 150.828 95 2 11.9424 151.073 5 95 945 9 65 65 8 160 100 11.9997 150.893 5 92 940 11.9424 150.950 SuperT 110 945 11.9998 150.828 TC 95 12.0210 150.876 4 95 13 268
1978361N02180 1979 135 WP MM ALICE 1979-01-08 12:00:00 TS 11.9667 150.267 95 950 tokyo main 1612 1589 OOOO_____OO___ jtwc_wp WP011979 12.0000 150.200 90 2 11.9000 150.400 5 95 950 9 65 65 8 160 100 0 12.0000 150.300 5 87 945 11.9000 150.300 SuperT 110 950 12.0000 150.200 TC 90 12.0000 150.200 4 90 13 266
1978361N02180 1979 135 WP MM ALICE 1979-01-08 15:00:00 TS 11.9065 149.625 main 1587 1578 PPPP_____PP___ WP011979 11.9499 149.585 87 2 11.8425 149.692 5 92 952 9 62 62 8 157 100 11.9500 149.650 5 87 951 11.7849 149.642 SuperT 102 955 11.9499 149.585 TC 87 11.9619 149.597 4 87 12 265
1978361N02180 1979 135 WP MM ALICE 1979-01-08 18:00:00 TS 11.8544 149.005 90 955 tokyo main 1578 1562 OOOO_____OP___ jtwc_wp WP011979 11.9000 149.000 85 2 11.8000 149.000 5 90 955 9 60 60 8 155 100 0 11.9000 149.000 5 87 957 11.7000 149.000 ST 95 960 11.9000 149.000 TC 85 11.9264 149.027 4 85 12 267
1978361N02180 1979 135 WP MM ALICE 1979-01-08 21:00:00 TS 11.8373 148.426 main 1561 1558 PPPP_____PP___ WP011979 11.8773 148.457 82 1 11.7772 148.392 5 90 957 9 60 60 8 157 100 11.8774 148.385 5 87 958 11.7123 148.393 ST 92 962 11.8773 148.457 TC 82 11.9026 148.469 4 82 11 271
1978361N02180 1979 135 WP MM ALICE 1979-01-09 00:00:00 TS 11.8667 147.850 90 960 tokyo main 1569 1568 OOOO_____OO___ jtwc_wp WP011979 11.9000 147.900 80 1 11.8000 147.800 5 90 960 9 60 60 8 160 100 0 11.9000 147.800 5 87 960 11.8000 147.800 ST 90 965 11.9000 147.900 TC 80 11.9000 147.900 4 80 12 276
1978361N02180 1979 135 WP MM ALICE 1979-01-09 03:00:00 TS 11.9626 147.235 main 1579 1579 PPPP_____PP___ WP011979 12.0000 147.258 77 1 11.8850 147.143 5 87 962 9 60 60 8 160 100 11.9997 147.265 5 82 962 11.9424 147.200 ST 87 967 12.0000 147.258 TC 77 11.9486 147.286 4 77 12 279
1978361N02180 1979 135 WP MM ALICE 1979-01-09 06:00:00 TS 12.0691 146.610 85 965 tokyo main 1591 1591 OOOO_____OP___ jtwc_wp WP011979 12.1000 146.600 75 1 12.0000 146.500 5 85 965 9 60 60 8 160 100 0 12.1000 146.700 4 77 965 12.1000 146.600 ST 85 970 12.1000 146.600 TC 75 12.0147 146.658 4 75 12 278
1978361N02180 1979 135 WP MM ALICE 1979-01-09 09:00:00 TS 12.1409 145.995 main 1592 1592 PPPP_____PP___ WP011979 12.1223 145.992 72 1 12.1371 145.958 5 82 967 9 60 60 8 160 100 12.1301 146.000 4 77 967 12.2599 146.000 ST 77 970 12.1223 145.992 TC 72 12.0735 146.026 4 72 12 274
1978361N02180 1979 135 WP MM ALICE 1979-01-09 12:00:00 TS 12.1500 145.383 80 970 tokyo main 1607 1597 OOOO_____OO___ jtwc_wp WP011979 12.1000 145.400 70 1 12.2000 145.400 5 80 970 9 60 60 8 160 100 0 12.1000 145.300 4 77 970 12.3000 145.400 T 70 970 12.1000 145.400 TC 70 12.1000 145.400 4 70 12 266
1978361N02180 1979 135 WP MM ALICE 1979-01-09 15:00:00 TS 12.0486 144.765 main 1592 1589 PPPP_____PP___ WP011979 12.0649 144.800 72 1 12.0729 144.640 5 75 970 9 55 55 8 155 100 11.9921 144.750 4 77 970 12.0648 144.807 T 70 970 12.0649 144.800 TC 72 12.0320 144.792 4 71 12 259
1978361N02180 1979 135 WP MM ALICE 1979-01-09 18:00:00 TS 11.9224 144.165 70 970 tokyo main 1590 1587 OOOO_____OP___ jtwc_wp WP011979 12.0000 144.200 75 1 11.9000 144.000 5 70 970 9 50 50 8 150 100 0 11.9000 144.200 4 77 970 11.8000 144.200 T 70 970 12.0000 144.200 TC 75 11.9344 144.191 4 72 11 259
1978361N02180 1979 135 WP MM ALICE 1979-01-09 21:00:00 TS 11.8376 143.633 main 1592 1592 PPPP_____PP___ WP011979 11.8698 143.607 75 1 11.7965 143.910 5 70 970 9 50 50 8 150 100 11.9200 143.515 4 77 970 11.7249 143.565 T 70 967 11.8698 143.607 TC 75 11.8446 143.595 4 73 11 265
1978361N02180 1979 135 WP MM ALICE 1979-01-10 00:00:00 TS 11.8333 143.067 70 970 tokyo main 1596 1585 OOOO_____OO___ jtwc_wp WP011979 11.8000 143.000 75 1 11.8000 143.700 5 70 970 9 50 50 8 150 100 0 12.0000 142.800 4 77 970 11.8000 142.900 T 70 965 11.8000 143.000 TC 75 11.8000 143.000 4 75 13 276
1978361N02180 1979 135 WP MM ALICE 1979-01-10 03:00:00 TS 11.9748 142.344 main 1589 1576 PPPP_____PP___ WP011979 11.9275 142.343 77 1 11.9865 142.668 5 70 967 9 50 50 8 145 95 12.0998 142.135 4 77 967 12.0499 142.200 T 70 962 11.9275 142.343 TC 77 11.8578 142.372 4 76 15 282
1978361N02180 1979 135 WP MM ALICE 1979-01-10 06:00:00 TS 12.1438 141.608 70 965 tokyo main 1576 1561 OOOO_____OP___ jtwc_wp WP011979 12.1000 141.700 80 1 12.2000 141.500 5 70 965 9 50 50 8 140 90 0 12.2000 141.500 4 77 965 12.3000 141.500 T 70 960 12.1000 141.700 TC 80 11.9626 141.748 4 77 14 280
1978361N02180 1979 135 WP MM ALICE 1979-01-10 09:00:00 TS 12.2175 140.984 main 1561 1542 PPPP_____PP___ WP011979 12.1724 141.112 80 1 12.2718 140.817 5 70 962 9 50 50 8 140 90 12.2573 140.892 4 77 962 12.3449 140.820 T 70 957 12.1724 141.112 TC 80 12.0860 141.150 4 78 12 275
1978361N02180 1979 135 WP MM ALICE 1979-01-10 12:00:00 TS 12.2500 140.433 70 960 tokyo main 1549 1532 OOOO_____OO___ jtwc_wp WP011979 12.2000 140.600 80 1 12.3000 140.300 5 70 960 9 50 50 8 140 90 0 12.3000 140.300 4 77 960 12.3000 140.200 T 70 955 12.2000 140.600 TC 80 12.2000 140.600 4 80 11 272
1978361N02180 1979 135 WP MM ALICE 1979-01-10 15:00:00 TS 12.2606 139.907 main 1532 1494 PPPP_____PP___ WP011979 12.1923 140.185 82 1 12.3501 139.690 5 70 955 9 50 50 8 140 90 12.3502 139.640 4 77 955 12.2349 139.640 T 72 952 12.1923 140.185 TC 82 12.2436 140.100 4 82 10 272
1978361N02180 1979 135 WP MM ALICE 1979-01-10 18:00:00 TS 12.2795 139.459 70 950 tokyo main 1494 1452 OOOO_____OP___ jtwc_wp WP011979 12.2000 139.800 85 2 12.4000 139.200 5 70 950 9 50 50 8 140 90 0 12.4000 139.100 4 77 950 12.2000 139.200 T 75 950 12.2000 139.800 TC 85 12.2770 139.652 4 85 8 276
1978361N02180 1979 135 WP MM ALICE 1979-01-10 21:00:00 TS 12.3373 139.111 main 1452 1422 PPPP_____PP___ WP011979 12.2776 139.335 87 2 12.4347 138.977 5 72 947 9 50 50 8 140 95 12.4422 138.855 4 82 947 12.2698 138.913 T 75 947 12.2776 139.335 TC 87 12.3219 139.253 4 87 6 284
1978361N02180 1979 135 WP MM ALICE 1979-01-11 00:00:00 TS 12.4333 138.817 75 945 tokyo main 1422 1393 OOOO_____OO___ jtwc_wp WP011979 12.4000 138.900 90 2 12.5000 138.800 5 75 945 9 50 50 8 140 100 0 12.5000 138.700 5 87 945 12.4000 138.700 T 75 945 12.4000 138.900 TC 90 12.4000 138.900 4 90 6 290
1978361N02180 1979 135 WP MM ALICE 1979-01-11 03:00:00 TS 12.5613 138.494 main 1394 1363 PPPP_____PP___ WP011979 12.5349 138.570 92 2 12.6276 138.408 5 77 942 9 55 55 8 140 100 12.5850 138.408 5 87 943 12.5425 138.450 T 77 942 12.5349 138.570 TC 92 12.5429 138.558 4 91 7 295
1978361N02180 1979 135 WP MM ALICE 1979-01-11 06:00:00 TS 12.7200 138.193 80 940 tokyo main 1363 1334 OOOO_____OP___ jtwc_wp WP011979 12.7000 138.300 95 2 12.8000 138.000 5 80 940 9 60 60 8 140 100 0 12.7000 138.100 5 87 941 12.7000 138.200 T 80 940 12.7000 138.300 TC 95 12.7198 138.260 4 92 7 301
1978361N02180 1979 135 WP MM ALICE 1979-01-11 09:00:00 TS 12.8957 137.924 main 1334 1314 PPPP_____PP___ WP011979 12.9000 138.020 95 2 12.9999 137.712 5 80 940 9 60 60 8 140 100 12.8275 137.835 5 87 939 12.8350 137.950 T 82 937 12.9000 138.020 TC 95 12.9118 138.008 4 93 6 307
1978361N02180 1979 135 WP MM ALICE 1979-01-11 12:00:00 TS 13.0833 137.700 80 940 tokyo main 1315 1296 OOOO_____OO___ jtwc_wp WP011979 13.1000 137.800 95 2 13.2000 137.500 5 80 940 9 60 60 8 140 100 0 13.0000 137.600 5 87 938 13.0000 137.700 ST 85 935 13.1000 137.800 TC 95 13.1000 137.800 4 95 5 314
1978361N02180 1979 135 WP MM ALICE 1979-01-11 15:00:00 TS 13.2690 137.522 main 1298 1289 PPPP_____PP___ WP011979 13.2574 137.685 97 3 13.3500 137.327 5 85 940 9 60 60 8 140 100 13.2500 137.370 5 87 939 13.2500 137.428 ST 85 937 13.2574 137.685 TC 97 13.2489 137.640 4 96 5 320
1978361N02180 1979 135 WP MM ALICE 1979-01-11 18:00:00 TS 13.4487 137.387 90 940 tokyo main 1289 1281 OOOO_____OP___ jtwc_wp WP011979 13.4000 137.600 100 3 13.5000 137.200 5 90 940 9 60 60 8 140 100 0 13.5000 137.200 5 87 940 13.5000 137.200 ST 85 940 13.4000 137.600 TC 100 13.3922 137.520 4 97 4 324
1978361N02180 1979 135 WP MM ALICE 1979-01-11 21:00:00 TS 13.6066 137.272 main 1283 1272 PPPP_____PP___ WP011979 13.5425 137.457 100 3 13.7000 137.085 5 85 942 9 60 60 8 140 120 13.6575 137.142 5 87 942 13.6575 137.077 ST 82 942 13.5425 137.457 TC 100 13.5395 137.415 4 98 4 326
1978361N02180 1979 135 WP MM ALICE 1979-01-12 00:00:00 TS 13.7667 137.167 80 945 tokyo main 1277 1259 OOOO_____OO___ jtwc_wp WP011979 13.7000 137.300 100 3 13.9000 137.000 5 80 945 9 60 60 9 140 140 0 13.8000 137.100 5 87 945 13.8000 137.000 T 80 945 13.7000 137.300 TC 100 13.7000 137.300 4 100 4 327
1978361N02180 1979 135 WP MM ALICE 1979-01-12 03:00:00 TS 13.9515 137.039 main 1261 1253 PPPP_____PP___ WP011979 13.8925 137.157 100 3 14.0575 136.950 5 80 945 9 60 60 9 140 140 13.9925 136.958 5 87 947 13.9925 136.900 T 80 947 13.8925 137.157 TC 100 13.8817 137.111 4 97 5 326
1978361N02180 1979 135 WP MM ALICE 1979-01-12 06:00:00 TS 14.1463 136.902 80 945 tokyo main 1253 1244 OOOO_____OP___ jtwc_wp WP011979 14.1000 137.000 100 3 14.2000 136.900 5 80 945 9 60 60 9 140 140 0 14.2000 136.800 5 87 950 14.2000 136.800 T 80 950 14.1000 137.000 TC 100 14.0777 136.913 4 95 5 323
1978361N02180 1979 135 WP MM ALICE 1979-01-12 09:00:00 TS 14.3329 136.746 main 1235 1228 PPPP_____PP___ WP011979 14.2925 136.785 95 2 14.3350 136.800 5 77 952 9 60 60 9 140 140 14.3925 136.678 5 82 955 14.4000 136.693 T 77 955 14.2925 136.785 TC 95 14.2848 136.733 4 92 5 324
1978361N02180 1979 135 WP MM ALICE 1979-01-12 12:00:00 TS 14.5333 136.617 75 960 tokyo main 1228 1222 OOOO_____OO___ jtwc_wp WP011979 14.5000 136.600 90 2 14.5000 136.700 5 75 960 9 60 60 9 140 140 0 14.6000 136.600 4 77 960 14.6000 136.600 T 75 960 14.5000 136.600 TC 90 14.5000 136.600 4 90 5 336
1978361N02180 1979 135 WP MM ALICE 1979-01-12 15:00:00 TS 14.7685 136.544 main 1224 1224 PPPP_____PP___ WP011979 14.7500 136.512 85 2 14.7425 136.620 5 72 960 9 55 55 9 140 140 14.8500 136.570 4 77 962 14.7925 136.528 T 72 960 14.7500 136.512 TC 85 14.7258 136.521 4 85 5 350
1978361N02180 1979 135 WP MM ALICE 1979-01-12 18:00:00 TS 15.0096 136.533 70 960 tokyo main 1229 1229 OOOO_____OP___ jtwc_wp WP011979 15.0000 136.500 80 1 15.0000 136.600 5 70 960 9 50 50 9 140 140 0 15.1000 136.600 4 77 965 15.0000 136.500 T 70 960 15.0000 136.500 TC 80 14.9573 136.495 4 80 5 6
1978361N02180 1979 135 WP MM ALICE 1979-01-12 21:00:00 TS 15.2275 136.578 main 1245 1245 PPPP_____PP___ WP011979 15.2075 136.520 75 1 15.2075 136.685 5 70 962 9 50 50 9 140 140 15.3075 136.692 4 72 967 15.2500 136.527 T 67 965 15.2075 136.520 TC 75 15.1852 136.521 4 75 4 17
1978361N02180 1979 135 WP MM ALICE 1979-01-13 00:00:00 TS 15.4333 136.667 70 965 tokyo main 1261 1261 OOOO_____OO___ jtwc_wp WP011979 15.4000 136.600 70 1 15.4000 136.800 5 70 965 9 50 50 9 140 140 0 15.5000 136.800 4 68 970 15.5000 136.600 T 65 970 15.4000 136.600 TC 70 15.4000 136.600 4 70 5 24
1978361N02180 1979 135 WP MM ALICE 1979-01-13 03:00:00 TS 15.6463 136.773 main 1278 1278 PPPP_____PP___ WP011979 15.6075 136.727 62 0 15.6075 136.858 5 70 972 9 45 45 9 145 145 15.7150 136.850 4 68 975 15.7225 136.692 T 62 975 15.6075 136.727 TC 62 15.6180 136.785 4 63 5 30
1978361N02180 1979 135 WP MM ALICE 1979-01-13 06:00:00 TS 15.8363 136.902 70 980 tokyo main 1294 1294 OOOO_____OP___ jtwc_wp WP011979 15.8000 136.900 55 0 15.8000 136.900 5 70 980 9 40 40 9 150 150 0 15.9000 136.900 4 68 980 15.9000 136.800 STS 60 980 15.8000 136.900 TC 55 15.8178 137.009 4 57 4 39
1978361N02180 1979 135 WP MM ALICE 1979-01-13 09:00:00 TS 15.9873 137.060 main 1321 1321 PPPP_____PP___ WP011979 15.9801 137.145 50 0 15.9650 136.965 5 67 982 9 40 40 9 165 165 16.0000 136.978 4 63 982 16.0150 136.923 STS 60 982 15.9801 137.145 TC 50 15.9836 137.204 4 51 4 44
1978361N02180 1979 135 WP MM ALICE 1979-01-13 12:00:00 TS 16.1000 137.167 65 985 tokyo main 1335 1335 OOOO_____OO___ jtwc_wp WP011979 16.1000 137.300 45 0 16.1000 137.000 5 65 985 9 40 40 9 180 180 0 16.1000 137.100 3 58 985 16.1000 137.000 STS 60 985 16.1000 137.300 TC 45 16.1000 137.300 2 45 2 27
1978361N02180 1979 135 WP MM ALICE 1979-01-13 15:00:00 TS 16.1894 137.167 main 1338 1328 PPPP_____PP___ WP011979 16.1225 137.218 42 0 16.2300 136.988 5 60 987 9 35 35 9 180 180 16.2776 137.352 3 58 985 16.2300 136.995 STS 55 987 16.1225 137.218 TC 42 16.1542 137.232 2 41 2 324
1978361N02180 1979 135 WP MM ALICE 1979-01-13 18:00:00 TS 16.2433 137.060 55 990 tokyo main 1328 1311 OOOO_____OP___ jtwc_wp WP011979 16.1000 137.000 40 0 16.3000 136.900 4 55 990 9 30 30 9 180 180 0 16.5000 137.500 3 58 985 16.3000 136.900 STS 50 990 16.1000 137.000 TC 40 16.1598 137.058 2 37 3 286
1978361N02180 1979 135 WP MM ALICE 1979-01-13 21:00:00 TS 16.2721 136.863 main 1311 1281 PPPP_____PP___ WP011979 16.1075 136.765 35 0 16.2649 136.745 4 55 990 9 30 30 9 140 140 16.7948 137.370 3 53 985 16.2225 136.730 STS 45 990 16.1075 136.765 TC 35 16.1355 136.804 2 33 5 275
1978361N02180 1979 135 WP MM ALICE 1979-01-14 00:00:00 TS 16.2818 136.591 55 990 tokyo main 1281 1251 OOOO_____OO___ jtwc_wp WP011979 16.1000 136.500 30 -1 16.2000 136.500 4 55 990 9 30 30 9 100 100 0 17.0000 137.000 3 48 985 16.1000 136.500 TS 40 990 16.1000 136.500 TC 30 16.1000 136.500 1 30 6 268
1978361N02180 1979 135 WP MM ALICE 1979-01-14 03:00:00 TS 16.2543 136.253 main 1251 1207 PPPP_____PP___ WP011979 16.0600 136.245 25 -1 16.1850 136.180 4 47 992 9 9 100 100 16.9230 136.414 3 48 985 16.0350 136.258 TS 37 992 16.0600 136.245 TC 25 16.0687 136.170 1 7 267
1978361N02180 1979 135 WP MM ALICE 1979-01-14 06:00:00 TS 16.2429 135.875 40 994 tokyo main 1207 1171 OOOO_____OP___ jtwc_wp WP011979 16.0000 136.000 20 -1 16.2000 135.800 3 40 994 0 9 100 100 0 16.8000 135.800 3 48 985 16.0000 136.000 TS 35 995 16.0000 136.000 TC 20 16.0430 135.822 1 7 275
1978361N02180 1979 135 WP MM ALICE 1979-01-14 09:00:00 TS 16.3143 135.523 main 1171 1146 _PPP______P___ WP011979 -1 16.2349 135.422 3 997 0 9 16.8622 135.420 3 43 987 15.9924 135.758 TS 32 997 TC 16.0208 135.464 1 7 286
1978361N02180 1979 135 WP MM ALICE 1979-01-14 12:00:00 TS 16.4333 135.167 1000 tokyo main 1146 1116 _OOO______O___ -1 16.3000 135.000 2 1000 0 0 0 17.0000 135.100 2 38 990 16.0000 135.500 TD 30 1000 16.0000 135.100 6 8 296
1978361N02180 1979 135 WP MM ALICE 1979-01-14 15:00:00 TS 16.6742 134.768 main 1121 1078 _PPP__________ -1 16.5192 134.591 2 1002 0 0 17.1649 134.723 2 33 992 16.0026 135.210 TD 27 1002 6 10 295
1978361N02180 1979 135 WP MM ALICE 1979-01-14 18:00:00 TS 16.8375 134.262 1004 tokyo main 1078 1018 _OOO__________ -1 16.5000 134.000 2 1004 0 0 0 17.3000 134.300 1 29 994 16.0000 134.900 TD 25 1004 6 12 279
1978361N02180 1979 135 WP MM ALICE 1979-01-14 21:00:00 TS 16.8614 133.574 main 1018 951 _PP___________ -1 15.9242 133.092 2 1008 0 0 17.3300 133.815 1 26 996 TD 6 12 265
1978361N02180 1979 135 WP MM ALICE 1979-01-15 00:00:00 MX 16.7250 132.975 1012 tokyo main 951 948 _OO___________ -1 15.0000 132.000 6 1012 0 0 0 17.3000 133.300 1 23 998 8 298
1978361N02180 1979 135 WP MM ALICE 1979-01-15 03:00:00 TS 17.2527 132.795 main 970 921 __P___________ -1 6 0 0 17.2527 132.795 1 21 998 8 306
1978361N02180 1979 135 WP MM ALICE 1979-01-15 06:00:00 TS 17.2000 132.300 main 921 __O___________ -1 17.2000 132.300 0 19 998 10 264

デジタル台風データ・検索

IBTrACS Databaseについて

本データベースは、米国NOAAが公開する1842年以降の世界の熱帯低気圧のベストトラックデータアーカイブInternational Best Track Archive for Climate Stewardship (IBTrACS)を、ウェブで閲覧しやすい形式に変換したものです。

最終更新日:2021-12-06